Time;durP1;ratioP1;P1;durP2;ratioP2;P2;SDS_P1;SDS_P2;PMS_P1;PMS_P2;Temp;Humidity;BMP_temperature;BMP_pressure;BME280_temperature;BME280_humidity;BME280_pressure;Samples;Min_cycle;Max_cycle;Signal;HPM_P1;HPM_P2
2021/04/16 00:00:29;;;;;;;3.42;3.05;;;3.20;99.90;;;;;;5038113;28;20219;-65
2021/04/16 00:02:56;;;;;;;5.30;2.22;;;3.20;99.90;;;;;;5022015;28;20231;-66
2021/04/16 00:05:22;;;;;;;3.97;3.28;;;3.20;99.90;;;;;;5038971;28;20201;-66
2021/04/16 00:07:49;;;;;;;3.60;2.80;;;3.20;99.90;;;;;;5021232;28;20197;-65
2021/04/16 00:10:22;;;;;;;3.40;2.67;;;3.10;99.90;;;;;;5038907;28;20194;-66
2021/04/16 00:12:49;;;;;;;3.03;2.72;;;3.10;99.90;;;;;;5039159;28;20288;-66
2021/04/16 00:15:19;;;;;;;3.97;2.80;;;3.20;99.90;;;;;;5040249;28;20204;-66
2021/04/16 00:17:46;;;;;;;3.00;2.60;;;3.20;99.90;;;;;;5040162;28;20182;-66
2021/04/16 00:20:17;;;;;;;1.90;1.80;;;3.20;99.90;;;;;;5021948;28;20201;-66
2021/04/16 00:22:43;;;;;;;3.60;2.70;;;3.20;99.90;;;;;;5039095;28;20221;-66
2021/04/16 00:25:12;;;;;;;4.65;2.65;;;3.20;99.90;;;;;;5021483;28;20201;-66
2021/04/16 00:27:39;;;;;;;3.47;3.22;;;3.20;99.90;;;;;;5040360;28;20556;-66
2021/04/16 00:30:06;;;;;;;3.00;2.80;;;3.20;99.90;;;;;;5040134;28;20186;-66
2021/04/16 00:32:34;;;;;;;7.78;2.88;;;3.10;99.90;;;;;;5040592;28;20214;-66
2021/04/16 00:35:01;;;;;;;2.80;2.60;;;3.10;99.90;;;;;;5038234;28;20193;-66
2021/04/16 00:37:27;;;;;;;3.65;3.35;;;3.10;99.90;;;;;;5039010;28;20276;-66
2021/04/16 00:39:54;;;;;;;3.80;3.13;;;3.10;99.90;;;;;;5038749;28;20208;-66
2021/04/16 00:42:20;;;;;;;2.90;2.38;;;3.10;99.90;;;;;;5038468;28;20312;-66
2021/04/16 00:44:47;;;;;;;4.22;2.80;;;3.10;99.90;;;;;;5037800;28;20201;-66
2021/04/16 00:47:17;;;;;;;3.00;2.80;;;3.10;99.90;;;;;;5037888;28;20209;-66
2021/04/16 00:49:46;;;;;;;4.40;3.30;;;3.00;99.90;;;;;;5038449;28;20208;-66
2021/04/16 00:52:20;;;;;;;2.92;2.60;;;3.00;99.90;;;;;;5037422;28;20733;-66
2021/04/16 00:54:47;;;;;;;3.35;3.00;;;3.00;99.90;;;;;;5038990;28;20185;-66
2021/04/16 00:57:15;;;;;;;4.32;3.00;;;3.00;99.90;;;;;;5037662;28;20193;-66
2021/04/16 00:59:48;;;;;;;2.85;2.63;;;3.00;99.90;;;;;;5036584;28;20567;-66
2021/04/16 01:02:15;;;;;;;3.45;3.15;;;3.00;99.90;;;;;;5034883;28;20220;-65
2021/04/16 01:04:41;;;;;;;3.45;3.25;;;2.90;99.90;;;;;;5016798;28;20292;-65
2021/04/16 01:07:09;;;;;;;4.93;3.00;;;3.00;99.90;;;;;;5034872;28;20185;-65
2021/04/16 01:09:36;;;;;;;3.00;2.80;;;3.00;99.90;;;;;;5035464;28;20205;-65
2021/04/16 01:12:07;;;;;;;3.00;2.70;;;3.00;99.90;;;;;;5034908;28;20217;-65
2021/04/16 01:14:35;;;;;;;3.92;3.28;;;3.00;99.90;;;;;;5035340;28;20185;-65
2021/04/16 01:17:02;;;;;;;4.10;3.70;;;3.00;99.90;;;;;;5034919;28;20196;-63
2021/04/16 01:19:46;;;;;;;4.20;3.72;;;3.00;99.90;;;;;;5034368;28;20201;-64
2021/04/16 01:22:36;;;;;;;3.33;3.13;;;3.00;99.90;;;;;;5016717;28;20204;-64
2021/04/16 01:25:06;;;;;;;3.65;3.35;;;3.00;99.90;;;;;;5034682;28;20201;-65
2021/04/16 01:27:33;;;;;;;3.13;2.92;;;3.00;99.90;;;;;;5034611;28;20201;-64
2021/04/16 01:30:16;;;;;;;3.95;3.42;;;3.00;99.90;;;;;;5016997;28;20205;-65
2021/04/16 01:32:43;;;;;;;3.85;3.55;;;3.00;99.90;;;;;;5034661;28;20201;-65
2021/04/16 01:35:15;;;;;;;6.35;3.60;;;3.00;99.90;;;;;;5034633;28;20596;-64
2021/04/16 01:37:42;;;;;;;3.33;2.85;;;3.00;99.90;;;;;;5034626;28;20190;-64
2021/04/16 01:40:10;;;;;;;4.70;3.20;;;3.10;99.90;;;;;;5033952;28;20217;-64
2021/04/16 01:42:36;;;;;;;3.67;3.33;;;3.10;99.90;;;;;;5034445;28;20178;-64
2021/04/16 01:45:06;;;;;;;7.97;3.78;;;3.00;99.90;;;;;;5034926;28;20571;-64
2021/04/16 01:47:32;;;;;;;3.70;3.40;;;3.00;99.90;;;;;;5034811;28;20247;-64
2021/04/16 01:49:58;;;;;;;4.20;3.70;;;3.00;99.90;;;;;;5033611;28;20251;-64
2021/04/16 01:52:31;;;;;;;3.97;3.67;;;3.00;99.90;;;;;;5034799;28;20224;-64
2021/04/16 01:54:59;;;;;;;5.20;3.10;;;3.00;99.90;;;;;;5034502;28;20184;-64
2021/04/16 01:57:32;;;;;;;4.22;3.78;;;2.90;99.90;;;;;;5034182;28;20193;-65
2021/04/16 01:59:59;;;;;;;6.00;3.72;;;3.00;99.90;;;;;;5033958;28;20185;-64
2021/04/16 02:02:30;;;;;;;4.85;4.28;;;3.00;99.90;;;;;;5034011;28;20316;-65
2021/04/16 02:04:58;;;;;;;4.10;3.50;;;3.00;99.90;;;;;;5033108;28;20189;-64
2021/04/16 02:07:25;;;;;;;7.20;3.53;;;3.00;99.90;;;;;;5034219;28;20186;-64
2021/04/16 02:09:51;;;;;;;6.85;3.78;;;3.00;99.90;;;;;;5034339;28;20284;-64
2021/04/16 02:12:23;;;;;;;3.40;3.08;;;3.00;99.90;;;;;;5034075;28;20684;-64
2021/04/16 02:14:54;;;;;;;3.28;3.05;;;2.90;99.90;;;;;;5015914;28;20212;-65
2021/04/16 02:17:26;;;;;;;3.85;3.55;;;3.00;99.90;;;;;;5034661;28;20643;-64
2021/04/16 02:19:58;;;;;;;4.03;3.55;;;3.00;99.90;;;;;;5016062;28;20267;-65
2021/04/16 02:22:26;;;;;;;7.18;4.10;;;3.00;99.90;;;;;;5034242;28;20194;-64
2021/04/16 02:24:53;;;;;;;9.77;3.70;;;2.90;99.90;;;;;;5034217;28;20287;-65
2021/04/16 02:27:23;;;;;;;4.35;3.50;;;2.90;99.90;;;;;;5032379;28;20211;-64
2021/04/16 02:29:49;;;;;;;4.28;3.97;;;2.90;99.90;;;;;;5033979;28;20197;-64
2021/04/16 02:32:18;;;;;;;3.80;3.50;;;2.90;99.90;;;;;;5033728;28;20224;-62
2021/04/16 02:34:45;;;;;;;5.00;3.17;;;2.90;99.90;;;;;;5033122;28;20243;-64
2021/04/16 02:37:15;;;;;;;5.15;3.53;;;2.90;99.90;;;;;;5033764;28;20554;-64
2021/04/16 02:39:42;;;;;;;3.95;3.65;;;2.90;99.90;;;;;;5015503;28;20228;-66
2021/04/16 02:42:09;;;;;;;4.38;3.97;;;2.80;99.90;;;;;;5033109;28;20248;-65
2021/04/16 02:44:36;;;;;;;5.10;4.45;;;2.80;99.90;;;;;;5015941;28;20208;-64
2021/04/16 02:47:04;;;;;;;3.70;3.45;;;2.80;99.90;;;;;;5033606;28;20641;-64
2021/04/16 02:49:30;;;;;;;4.10;3.70;;;2.80;99.90;;;;;;5033890;28;20197;-64
2021/04/16 02:51:57;;;;;;;5.55;4.25;;;2.90;99.90;;;;;;5033338;28;20189;-65
2021/04/16 02:54:24;;;;;;;4.88;4.38;;;2.90;99.90;;;;;;5033349;28;20259;-65
2021/04/16 02:56:50;;;;;;;4.30;3.90;;;2.90;99.90;;;;;;5034259;28;20717;-65
2021/04/16 02:59:20;;;;;;;5.25;4.13;;;2.90;99.90;;;;;;5033320;28;20193;-64
2021/04/16 03:01:47;;;;;;;4.22;3.92;;;2.80;99.90;;;;;;5038118;28;20588;-64
2021/04/16 03:04:14;;;;;;;7.18;4.18;;;2.80;99.90;;;;;;5035915;28;20228;-65
2021/04/16 03:06:40;;;;;;;4.90;4.40;;;2.80;99.90;;;;;;5052410;28;20275;-63
2021/04/16 03:09:07;;;;;;;4.93;4.43;;;2.80;99.90;;;;;;5053109;28;20669;-64
2021/04/16 03:11:33;;;;;;;4.90;4.50;;;2.80;99.90;;;;;;5052983;28;20208;-65
2021/04/16 03:14:00;;;;;;;5.00;4.60;;;2.80;99.90;;;;;;5052818;28;20235;-65
2021/04/16 03:16:28;;;;;;;3.70;3.40;;;2.80;99.90;;;;;;5055558;28;20197;-65
2021/04/16 03:18:59;;;;;;;6.28;4.70;;;2.80;99.90;;;;;;5056480;28;20561;-65
2021/04/16 03:21:26;;;;;;;6.07;4.63;;;2.80;99.90;;;;;;5056918;28;20191;-65
2021/04/16 03:23:53;;;;;;;5.97;4.70;;;2.70;99.90;;;;;;5038576;28;20215;-65
2021/04/16 03:26:20;;;;;;;6.35;5.57;;;2.80;99.90;;;;;;5057187;28;20181;-65
2021/04/16 03:28:50;;;;;;;7.35;5.30;;;2.80;99.90;;;;;;5057155;28;20185;-65
2021/04/16 03:31:17;;;;;;;6.50;5.78;;;2.80;99.90;;;;;;5056916;28;20639;-65
2021/04/16 03:33:43;;;;;;;10.07;8.68;;;2.80;99.90;;;;;;5056447;28;20252;-65
2021/04/16 03:36:09;;;;;;;7.75;6.55;;;2.80;99.90;;;;;;5038428;28;20200;-63
2021/04/16 03:38:36;;;;;;;6.97;5.22;;;2.80;99.90;;;;;;5056439;28;20612;-62
2021/04/16 03:41:02;;;;;;;6.43;5.15;;;2.80;99.90;;;;;;5056364;28;20233;-63
2021/04/16 03:43:28;;;;;;;4.70;4.30;;;2.80;99.90;;;;;;5057086;28;20192;-63
2021/04/16 03:45:55;;;;;;;6.53;4.50;;;2.80;99.90;;;;;;5056216;28;20189;-63
2021/04/16 03:48:21;;;;;;;10.48;5.45;;;2.80;99.90;;;;;;5056325;28;20350;-64
2021/04/16 03:50:48;;;;;;;8.38;4.93;;;2.80;99.90;;;;;;5056463;28;20189;-63
2021/04/16 03:53:14;;;;;;;6.22;5.63;;;2.80;99.90;;;;;;5056503;28;20223;-65
2021/04/16 03:55:41;;;;;;;9.02;5.90;;;2.70;99.90;;;;;;5038701;28;20579;-65
2021/04/16 03:58:09;;;;;;;11.13;6.00;;;2.70;99.90;;;;;;5057606;28;20199;-65
2021/04/16 04:00:38;;;;;;;5.50;5.00;;;2.70;99.90;;;;;;5058027;28;20660;-66
2021/04/16 04:03:06;;;;;;;6.00;5.47;;;2.60;99.90;;;;;;5056076;28;20232;-66
2021/04/16 04:05:34;;;;;;;6.70;5.50;;;2.60;99.90;;;;;;5058965;28;20326;-65
2021/04/16 04:08:00;;;;;;;7.97;5.50;;;2.50;99.90;;;;;;5055306;28;20208;-65
2021/04/16 04:10:34;;;;;;;6.22;5.63;;;2.50;99.90;;;;;;5055651;28;20668;-65
2021/04/16 04:13:00;;;;;;;7.50;6.05;;;2.40;99.90;;;;;;5056133;28;20200;-65
2021/04/16 04:15:27;;;;;;;5.63;5.10;;;2.30;99.90;;;;;;5054586;28;20201;-65
2021/04/16 04:17:54;;;;;;;5.57;4.97;;;2.30;99.90;;;;;;5056194;28;20582;-65
2021/04/16 04:20:25;;;;;;;7.70;5.72;;;2.30;99.90;;;;;;5055947;28;20200;-65
2021/04/16 04:22:52;;;;;;;6.75;6.15;;;2.30;99.90;;;;;;5055784;28;20516;-65
2021/04/16 04:25:20;;;;;;;5.75;5.15;;;2.30;99.90;;;;;;5055357;28;20562;-65
2021/04/16 04:27:48;;;;;;;6.40;5.72;;;2.30;99.90;;;;;;5036197;28;20204;-64
2021/04/16 04:30:15;;;;;;;9.07;6.22;;;2.30;99.90;;;;;;5055572;28;20607;-64
2021/04/16 04:32:42;;;;;;;9.23;7.30;;;2.30;99.90;;;;;;5055459;28;20216;-65
2021/04/16 04:35:09;;;;;;;7.55;6.70;;;2.30;99.90;;;;;;5055555;28;20276;-65
2021/04/16 04:37:35;;;;;;;9.20;6.30;;;2.30;99.90;;;;;;5055852;28;20648;-65
2021/04/16 04:40:04;;;;;;;15.65;10.93;;;2.40;99.90;;;;;;5055203;28;20208;-66
2021/04/16 04:42:31;;;;;;;24.52;15.57;;;2.50;99.90;;;;;;5055125;28;20579;-66
2021/04/16 04:44:57;;;;;;;23.80;16.75;;;2.70;99.90;;;;;;5055292;28;20189;-65
2021/04/16 04:47:23;;;;;;;18.40;15.68;;;2.60;99.90;;;;;;5056487;28;20234;-66
2021/04/16 04:49:50;;;;;;;14.27;10.82;;;2.70;99.90;;;;;;5055443;28;20193;-66
2021/04/16 04:52:26;;;;;;;9.68;7.40;;;2.80;99.90;;;;;;5055266;28;20196;-66
2021/04/16 04:54:54;;;;;;;8.75;7.50;;;2.90;99.90;;;;;;5055297;28;20201;-65
2021/04/16 04:57:23;;;;;;;8.65;7.43;;;2.90;99.90;;;;;;5054701;28;20209;-65
2021/04/16 04:59:50;;;;;;;8.90;7.43;;;2.90;99.90;;;;;;5056171;28;20640;-66
2021/04/16 05:02:19;;;;;;;9.07;6.50;;;3.00;99.90;;;;;;5055316;28;20192;-66
2021/04/16 05:04:46;;;;;;;8.25;6.78;;;3.10;99.90;;;;;;5036895;28;20201;-66
2021/04/16 05:07:13;;;;;;;11.13;6.57;;;3.10;99.90;;;;;;5055259;28;20195;-66
2021/04/16 05:09:39;;;;;;;20.75;7.82;;;3.10;99.90;;;;;;5055043;28;20192;-66
2021/04/16 05:12:06;;;;;;;8.82;7.13;;;3.20;99.90;;;;;;5054075;28;20577;-66
2021/04/16 05:14:33;;;;;;;8.82;7.97;;;3.10;99.90;;;;;;5054609;28;20199;-67
2021/04/16 05:16:59;;;;;;;8.95;8.05;;;3.20;99.90;;;;;;5055142;28;20551;-67
2021/04/16 05:19:25;;;;;;;9.82;7.95;;;3.20;99.90;;;;;;5036432;28;20291;-67
2021/04/16 05:21:57;;;;;;;11.30;8.15;;;3.30;99.90;;;;;;5054771;28;20201;-66
2021/04/16 05:24:24;;;;;;;9.70;7.95;;;3.30;99.90;;;;;;5036383;28;20225;-67
2021/04/16 05:26:50;;;;;;;17.98;8.20;;;3.30;99.90;;;;;;5053628;28;20204;-67
2021/04/16 05:29:17;;;;;;;14.32;8.32;;;3.40;99.90;;;;;;5054799;28;20193;-67
2021/04/16 05:31:44;;;;;;;14.57;9.55;;;3.50;99.90;;;;;;5054549;28;20196;-67
2021/04/16 05:34:10;;;;;;;10.40;8.50;;;3.60;99.90;;;;;;5054487;28;20208;-66
2021/04/16 05:36:36;;;;;;;8.43;7.63;;;3.60;99.90;;;;;;5036183;28;20203;-67
2021/04/16 05:39:03;;;;;;;12.02;8.00;;;3.70;99.90;;;;;;5054350;28;20567;-66
2021/04/16 05:41:29;;;;;;;9.38;7.95;;;3.70;99.90;;;;;;5054063;28;20233;-66
2021/04/16 05:43:56;;;;;;;10.13;9.02;;;3.80;99.90;;;;;;5054508;28;20218;-65
2021/04/16 05:46:22;;;;;;;12.65;7.90;;;3.90;99.90;;;;;;5054383;28;20185;-66
2021/04/16 05:48:48;;;;;;;16.60;8.88;;;4.00;99.90;;;;;;5036268;28;20561;-65
2021/04/16 05:51:15;;;;;;;10.65;7.55;;;4.00;99.90;;;;;;5054187;28;20197;-66
2021/04/16 05:53:41;;;;;;;7.85;7.03;;;4.10;99.90;;;;;;5053933;28;20212;-65
2021/04/16 05:56:08;;;;;;;35.28;27.25;;;4.20;99.90;;;;;;5036322;28;20295;-65
2021/04/16 05:58:34;;;;;;;13.27;7.13;;;4.20;99.90;;;;;;5053388;28;20576;-65
2021/04/16 06:01:00;;;;;;;13.23;8.07;;;4.20;99.90;;;;;;5053305;28;20194;-66
2021/04/16 06:03:27;;;;;;;10.30;7.60;;;4.30;99.90;;;;;;5052983;28;20235;-65
2021/04/16 06:05:54;;;;;;;11.68;7.68;;;4.30;99.90;;;;;;5054215;28;20215;-65
2021/04/16 06:08:21;;;;;;;8.30;7.40;;;4.30;99.90;;;;;;5053618;28;20225;-65
2021/04/16 06:10:48;;;;;;;7.65;6.78;;;4.10;99.90;;;;;;5053718;28;20199;-65
2021/04/16 06:13:15;;;;;;;7.43;6.60;;;4.10;99.90;;;;;;5054134;28;20299;-65
2021/04/16 06:15:41;;;;;;;8.32;7.47;;;4.10;99.90;;;;;;5035800;28;20209;-65
2021/04/16 06:18:08;;;;;;;10.88;7.35;;;4.00;99.90;;;;;;5053294;28;20295;-65
2021/04/16 06:20:35;;;;;;;8.45;7.65;;;4.10;99.90;;;;;;5053592;28;20224;-65
2021/04/16 06:23:01;;;;;;;16.45;7.75;;;4.20;99.90;;;;;;5036091;28;20193;-66
2021/04/16 06:25:34;;;;;;;11.00;8.77;;;4.30;99.90;;;;;;5052737;28;20208;-66
2021/04/16 06:28:02;;;;;;;10.30;8.90;;;4.30;99.90;;;;;;5054000;28;20204;-66
2021/04/16 06:30:30;;;;;;;10.68;7.00;;;4.30;99.90;;;;;;5053799;28;20271;-65
2021/04/16 06:33:07;;;;;;;8.57;7.47;;;4.20;99.90;;;;;;5053535;28;20243;-65
2021/04/16 06:35:35;;;;;;;16.90;7.20;;;4.20;99.90;;;;;;5053730;28;20177;-66
2021/04/16 06:38:02;;;;;;;11.05;7.15;;;4.20;99.90;;;;;;5053173;28;20286;-65
2021/04/16 06:40:30;;;;;;;8.45;7.65;;;4.30;99.90;;;;;;5052939;28;20238;-65
2021/04/16 06:42:57;;;;;;;9.38;8.30;;;4.30;99.90;;;;;;5053759;28;20173;-65
2021/04/16 06:45:35;;;;;;;8.85;7.05;;;4.30;99.90;;;;;;5053724;28;20196;-64
2021/04/16 06:48:07;;;;;;;14.15;8.10;;;4.40;99.90;;;;;;5036068;28;20282;-66
2021/04/16 06:50:41;;;;;;;12.43;8.95;;;4.40;99.90;;;;;;5020736;28;20291;-65
2021/04/16 06:53:38;;;;;;;12.02;8.13;;;4.40;99.90;;;;;;5057355;28;20247;-65
2021/04/16 06:56:11;;;;;;;10.07;7.80;;;4.50;99.90;;;;;;5058972;28;20197;-65
2021/04/16 06:58:54;;;;;;;9.65;8.65;;;4.50;99.90;;;;;;5057724;28;20692;-66
2021/04/16 07:01:44;;;;;;;14.20;10.10;;;4.60;99.90;;;;;;5057432;28;20211;-65
2021/04/16 07:04:16;;;;;;;11.07;9.85;;;4.60;99.90;;;;;;5058037;28;20180;-66
2021/04/16 07:06:43;;;;;;;7.95;7.15;;;4.60;99.90;;;;;;5057565;28;20263;-65
2021/04/16 07:09:33;;;;;;;11.27;9.13;;;4.60;99.90;;;;;;5039487;28;20617;-64
2021/04/16 07:12:14;;;;;;;8.75;7.85;;;4.70;99.90;;;;;;5057230;28;20191;-66
2021/04/16 07:14:45;;;;;;;11.52;8.98;;;4.70;99.90;;;;;;5056486;28;20231;-65
2021/04/16 07:17:18;;;;;;;10.23;8.60;;;4.70;99.90;;;;;;5040136;28;20209;-64
2021/04/16 07:19:44;;;;;;;8.70;7.82;;;4.80;99.90;;;;;;5056937;28;20200;-65
2021/04/16 07:22:31;;;;;;;10.32;8.52;;;4.80;99.90;;;;;;5056913;28;20185;-65
2021/04/16 07:24:58;;;;;;;11.95;9.65;;;4.90;99.90;;;;;;5057228;28;20185;-65
2021/04/16 07:27:47;;;;;;;21.50;8.98;;;4.90;99.90;;;;;;5039355;28;20258;-65
2021/04/16 07:30:38;;;;;;;15.15;9.93;;;5.00;99.90;;;;;;5056628;28;20212;-65
2021/04/16 07:33:23;;;;;;;12.55;8.35;;;5.10;99.90;;;;;;5057119;28;20311;-66
2021/04/16 07:36:10;;;;;;;10.63;8.75;;;5.10;99.90;;;;;;5057038;28;20666;-66
2021/04/16 07:38:40;;;;;;;9.30;8.35;;;5.10;99.90;;;;;;5039187;28;20192;-65
2021/04/16 07:41:24;;;;;;;12.45;7.85;;;5.20;99.90;;;;;;5056313;28;20666;-65
2021/04/16 07:43:53;;;;;;;10.13;9.05;;;5.20;99.90;;;;;;5056876;28;20195;-65
2021/04/16 07:46:26;;;;;;;11.13;8.50;;;5.40;99.90;;;;;;5056959;28;20207;-65
2021/04/16 07:48:53;;;;;;;9.65;8.50;;;5.40;99.90;;;;;;5056643;28;20201;-65
2021/04/16 07:51:31;;;;;;;12.63;9.30;;;5.40;99.90;;;;;;5057282;28;20218;-66
2021/04/16 07:54:13;;;;;;;10.30;8.80;;;5.50;99.90;;;;;;5055670;28;20267;-65
2021/04/16 07:56:41;;;;;;;14.13;10.05;;;5.60;99.90;;;;;;5057068;28;20173;-65
2021/04/16 07:59:11;;;;;;;13.38;8.18;;;5.70;99.90;;;;;;5056622;28;20648;-65
2021/04/16 08:01:49;;;;;;;9.77;8.68;;;5.70;99.90;;;;;;5062566;28;20199;-65
2021/04/16 08:04:18;;;;;;;13.48;9.43;;;5.80;99.90;;;;;;5026175;28;20197;-65
2021/04/16 08:06:47;;;;;;;10.38;8.98;;;5.80;99.90;;;;;;5055928;28;20208;-65
2021/04/16 08:09:33;;;;;;;11.23;8.90;;;5.90;99.90;;;;;;5056186;28;20192;-65
2021/04/16 08:12:00;;;;;;;8.88;7.88;;;6.10;99.90;;;;;;5056766;28;20612;-65
2021/04/16 08:14:33;;;;;;;10.55;9.18;;;6.20;99.90;;;;;;5056395;28;20216;-65
2021/04/16 08:17:25;;;;;;;9.75;8.75;;;6.10;99.90;;;;;;5055292;28;20204;-64
2021/04/16 08:19:52;;;;;;;10.40;9.30;;;6.30;99.90;;;;;;5056250;28;20275;-65
2021/04/16 08:22:24;;;;;;;10.15;8.80;;;6.50;99.90;;;;;;5056319;28;20710;-65
2021/04/16 08:25:01;;;;;;;14.60;9.55;;;6.40;99.90;;;;;;5056053;28;20184;-65
2021/04/16 08:27:43;;;;;;;12.38;8.00;;;6.50;99.90;;;;;;5055716;28;20701;-65
2021/04/16 08:30:24;;;;;;;8.10;7.32;;;6.90;99.90;;;;;;5055822;28;20204;-64
2021/04/16 08:33:03;;;;;;;8.20;7.40;;;7.20;99.90;;;;;;5055592;28;20208;-65
2021/04/16 08:35:35;;;;;;;9.45;7.80;;;7.40;99.90;;;;;;5055924;28;20181;-66
2021/04/16 08:38:05;;;;;;;6.65;6.05;;;6.70;99.90;;;;;;5056177;28;20177;-66
2021/04/16 08:40:40;;;;;;;7.15;6.45;;;7.00;99.90;;;;;;5055238;28;20236;-65
2021/04/16 08:43:10;;;;;;;7.30;6.65;;;7.10;99.90;;;;;;5037550;28;20203;-66
2021/04/16 08:45:40;;;;;;;7.18;6.43;;;7.20;99.90;;;;;;5055191;28;20177;-65
2021/04/16 08:48:21;;;;;;;10.02;7.03;;;7.40;99.90;;;;;;5055170;28;20192;-65
2021/04/16 08:50:52;;;;;;;7.32;6.63;;;7.30;99.90;;;;;;5054913;28;20208;-66
2021/04/16 08:53:19;;;;;;;8.07;7.05;;;7.40;99.90;;;;;;5055181;28;20215;-66
2021/04/16 08:55:48;;;;;;;7.30;6.63;;;7.80;99.90;;;;;;5055630;28;20210;-66
2021/04/16 08:58:33;;;;;;;8.38;7.47;;;7.70;99.90;;;;;;5055881;28;20204;-66
2021/04/16 09:01:11;;;;;;;7.40;6.65;;;8.00;99.90;;;;;;5055184;28;20195;-66
2021/04/16 09:03:48;;;;;;;8.85;6.15;;;8.00;99.90;;;;;;5055183;28;20180;-65
2021/04/16 09:06:41;;;;;;;5.45;5.05;;;8.10;99.90;;;;;;5054879;28;20164;-66
2021/04/16 09:09:12;;;;;;;4.60;4.30;;;8.10;99.90;;;;;;5052048;28;20203;-65
2021/04/16 09:11:42;;;;;;;5.55;4.97;;;8.20;99.90;;;;;;5037338;28;20215;-66
2021/04/16 09:14:10;;;;;;;11.40;4.75;;;8.60;99.90;;;;;;5054680;28;20223;-66
2021/04/16 09:16:56;;;;;;;7.63;4.70;;;8.10;99.90;;;;;;5054959;28;20185;-66
2021/04/16 09:19:22;;;;;;;5.47;4.90;;;8.20;99.90;;;;;;5055585;28;20203;-66
2021/04/16 09:22:21;;;;;;;5.63;5.13;;;8.60;99.90;;;;;;5054724;28;20189;-66
2021/04/16 09:24:59;;;;;;;5.85;4.88;;;7.90;99.90;;;;;;5054466;28;20636;-66
2021/04/16 09:27:25;;;;;;;9.85;4.70;;;7.70;99.90;;;;;;5053779;28;20216;-66
2021/04/16 09:30:05;;;;;;;4.80;4.40;;;7.90;99.90;;;;;;5055428;28;20246;-66
2021/04/16 09:32:46;;;;;;;6.40;5.20;;;7.90;99.90;;;;;;5053911;28;20200;-65
2021/04/16 09:35:18;;;;;;;5.00;4.65;;;8.00;99.90;;;;;;5054683;28;20204;-65
2021/04/16 09:37:45;;;;;;;6.15;5.38;;;8.60;99.90;;;;;;5036028;28;20211;-65
2021/04/16 09:40:17;;;;;;;5.90;5.30;;;8.30;99.90;;;;;;5053524;28;20208;-65
2021/04/16 09:42:51;;;;;;;6.40;4.78;;;8.30;99.90;;;;;;5053801;28;20545;-66
2021/04/16 09:45:32;;;;;;;10.38;5.45;;;8.60;99.90;;;;;;5054060;28;20563;-66
2021/04/16 09:48:21;;;;;;;5.97;4.85;;;8.60;99.90;;;;;;5050076;28;20720;-65
2021/04/16 09:51:09;;;;;;;5.05;4.65;;;8.40;99.90;;;;;;5045975;28;20679;-65
2021/04/16 09:53:37;;;;;;;5.78;5.28;;;7.90;99.90;;;;;;5054030;28;20575;-66
2021/04/16 09:56:18;;;;;;;6.95;5.50;;;8.00;99.90;;;;;;5035913;28;20284;-66
2021/04/16 09:58:50;;;;;;;4.90;4.50;;;8.30;99.90;;;;;;5041651;28;20192;-67
2021/04/16 10:01:22;;;;;;;4.82;4.43;;;8.60;99.90;;;;;;5053567;28;20192;-66
2021/04/16 10:03:51;;;;;;;5.35;4.65;;;9.10;99.90;;;;;;5053440;28;20200;-66
2021/04/16 10:06:31;;;;;;;5.28;4.20;;;9.40;99.90;;;;;;5052963;28;20204;-66
2021/04/16 10:09:16;;;;;;;4.90;4.50;;;8.90;99.90;;;;;;5052533;28;20205;-66
2021/04/16 10:11:54;;;;;;;4.43;4.07;;;8.40;99.90;;;;;;5053219;28;20200;-66
2021/04/16 10:14:28;;;;;;;5.50;5.00;;;8.40;99.90;;;;;;5045007;28;20579;-65
2021/04/16 10:16:55;;;;;;;4.68;4.38;;;8.40;99.90;;;;;;5053483;28;20242;-65
2021/04/16 10:19:26;;;;;;;4.85;4.45;;;8.00;99.90;;;;;;5053695;28;20205;-65
2021/04/16 10:21:54;;;;;;;4.95;4.45;;;8.00;99.90;;;;;;5054011;28;20188;-65
2021/04/16 10:31:54;;;;;;;4.70;4.30;;;7.60;99.90;;;;;;5054001;28;20609;-65
2021/04/16 12:41:21;;;;;;;6.82;2.75;;;9.00;99.90;;;;;;5056373;28;20233;-66
2021/04/16 12:43:48;;;;;;;4.55;3.25;;;9.30;99.90;;;;;;5056316;28;20185;-66
2021/04/16 12:46:22;;;;;;;3.72;3.30;;;9.40;99.90;;;;;;5056074;28;20196;-66
2021/04/16 12:48:48;;;;;;;3.47;3.20;;;9.10;99.90;;;;;;5055768;28;20173;-65
2021/04/16 12:51:15;;;;;;;2.75;2.65;;;9.20;99.90;;;;;;5056516;28;20262;-65
2021/04/16 12:53:41;;;;;;;3.97;3.00;;;9.00;99.90;;;;;;5057035;28;20197;-66
2021/04/16 12:56:12;;;;;;;4.07;3.15;;;9.10;99.90;;;;;;5056632;28;20208;-66
2021/04/16 12:58:41;;;;;;;4.45;3.05;;;9.20;99.90;;;;;;5057840;28;20237;-66
2021/04/16 13:01:15;;;;;;;4.82;2.78;;;9.40;99.90;;;;;;5059073;28;20273;-67
2021/04/16 13:03:42;;;;;;;3.60;3.30;;;9.20;99.90;;;;;;5056304;28;20177;-66
2021/04/16 13:06:18;;;;;;;3.38;3.08;;;9.30;99.90;;;;;;5056872;28;20682;-66
2021/04/16 13:08:45;;;;;;;3.55;2.65;;;9.30;99.90;;;;;;5056366;28;20196;-67
2021/04/16 13:11:11;;;;;;;5.30;2.75;;;9.40;99.90;;;;;;5038238;28;20208;-67
2021/04/16 13:13:38;;;;;;;2.53;2.42;;;9.60;99.90;;;;;;5056999;28;20561;-67
2021/04/16 13:16:05;;;;;;;4.28;3.03;;;9.50;99.90;;;;;;5056823;28;20220;-67
2021/04/16 13:18:36;;;;;;;2.70;2.50;;;9.60;99.90;;;;;;5039235;28;20193;-67
2021/04/16 13:21:06;;;;;;;2.30;2.20;;;9.70;99.90;;;;;;5057173;28;20177;-67
2021/04/16 13:23:33;;;;;;;3.03;2.65;;;10.00;99.90;;;;;;5056388;28;20306;-67
2021/04/16 13:26:02;;;;;;;2.90;2.70;;;10.10;99.90;;;;;;5056347;28;20203;-66
2021/04/16 13:28:31;;;;;;;2.75;2.42;;;10.00;99.90;;;;;;5041293;28;20189;-67
2021/04/16 13:30:58;;;;;;;3.00;2.70;;;9.70;99.90;;;;;;5056063;28;20640;-67
2021/04/16 13:33:25;;;;;;;3.67;2.35;;;9.70;99.90;;;;;;5056026;28;20279;-65
2021/04/16 13:35:57;;;;;;;3.55;2.92;;;10.00;99.90;;;;;;5022163;28;20304;-66
2021/04/16 13:38:29;;;;;;;3.00;2.75;;;10.10;99.90;;;;;;5056290;28;20193;-68
2021/04/16 13:40:57;;;;;;;3.15;2.30;;;10.10;99.90;;;;;;5055386;28;20685;-68
2021/04/16 13:43:24;;;;;;;2.92;2.58;;;10.20;99.90;;;;;;5056403;28;20215;-67
2021/04/16 13:45:51;;;;;;;3.70;2.55;;;10.30;99.90;;;;;;5039001;28;20260;-66
2021/04/16 13:48:18;;;;;;;2.45;2.25;;;10.50;99.90;;;;;;5037620;28;20216;-66
2021/04/16 13:50:45;;;;;;;5.20;2.75;;;10.40;99.90;;;;;;5038530;28;20264;-66
2021/04/16 13:53:13;;;;;;;2.22;2.10;;;10.50;99.90;;;;;;5037634;28;20287;-67
2021/04/16 13:55:40;;;;;;;2.10;2.00;;;10.10;99.90;;;;;;5037778;28;20220;-67
2021/04/16 13:58:06;;;;;;;3.10;2.90;;;10.00;99.90;;;;;;5054881;28;20219;-66
2021/04/16 14:00:36;;;;;;;4.80;2.13;;;9.90;99.90;;;;;;5020655;28;20302;-67
2021/04/16 14:03:33;;;;;;;2.40;2.10;;;9.80;99.90;;;;;;5055154;28;20311;-67
2021/04/16 14:06:05;;;;;;;2.70;2.50;;;9.60;99.90;;;;;;5039896;28;20211;-65
2021/04/16 14:08:37;;;;;;;3.05;1.70;;;9.40;99.90;;;;;;5056075;28;20181;-67
2021/04/16 14:11:04;;;;;;;3.25;2.95;;;9.60;99.90;;;;;;5054002;28;20212;-67
2021/04/16 14:13:32;;;;;;;4.20;3.78;;;9.80;99.90;;;;;;5055005;28;20192;-68
2021/04/16 14:16:07;;;;;;;2.10;2.00;;;9.80;99.90;;;;;;5055476;28;20303;-67
2021/04/16 14:18:43;;;;;;;2.55;1.80;;;9.60;99.90;;;;;;5056016;28;20287;-67
2021/04/16 14:21:18;;;;;;;1.75;1.60;;;9.60;99.90;;;;;;5057433;28;20587;-67
2021/04/16 14:23:45;;;;;;;1.52;1.42;;;9.50;99.90;;;;;;5039762;28;20670;-67
2021/04/16 14:26:19;;;;;;;1.65;1.55;;;9.40;99.90;;;;;;5040942;28;20205;-67
2021/04/16 14:28:49;;;;;;;2.13;1.98;;;9.50;99.90;;;;;;5039401;28;20253;-66
2021/04/16 14:31:16;;;;;;;1.88;1.75;;;9.60;99.90;;;;;;5040744;28;20287;-67
2021/04/16 14:33:43;;;;;;;2.08;1.98;;;9.40;99.90;;;;;;5040522;28;20211;-66
2021/04/16 14:36:12;;;;;;;1.83;1.73;;;9.20;99.90;;;;;;5057377;28;20656;-66
2021/04/16 14:38:38;;;;;;;2.60;2.40;;;9.10;99.90;;;;;;5024767;28;20311;-67
2021/04/16 14:41:06;;;;;;;2.42;2.22;;;9.10;99.90;;;;;;5019798;28;20259;-67
2021/04/16 14:43:34;;;;;;;17.92;2.30;;;9.10;99.90;;;;;;5054577;28;20185;-67
2021/04/16 14:46:00;;;;;;;2.35;1.67;;;9.00;99.90;;;;;;5037473;28;20207;-67
2021/04/16 14:48:29;;;;;;;5.72;2.75;;;9.00;99.90;;;;;;5037520;28;20667;-67
2021/04/16 14:50:59;;;;;;;1.73;1.60;;;9.10;99.90;;;;;;5055228;28;20272;-67
2021/04/16 14:53:35;;;;;;;1.83;1.65;;;9.00;99.90;;;;;;5037083;28;20201;-67
2021/04/16 14:56:06;;;;;;;1.85;1.75;;;8.90;99.90;;;;;;5054232;28;20678;-67
2021/04/16 14:58:45;;;;;;;2.03;1.92;;;8.80;99.90;;;;;;5054137;28;20197;-67
2021/04/16 15:01:13;;;;;;;2.15;2.03;;;8.60;99.90;;;;;;5053462;28;20173;-67
2021/04/16 15:03:39;;;;;;;2.88;1.90;;;8.60;99.90;;;;;;5020090;28;20204;-66
2021/04/16 15:06:13;;;;;;;2.35;2.15;;;8.70;99.90;;;;;;5053661;28;20199;-66
2021/04/16 15:08:48;;;;;;;1.73;1.63;;;8.80;99.90;;;;;;5053773;28;20670;-66
2021/04/16 15:11:17;;;;;;;2.33;2.22;;;8.90;99.90;;;;;;5054464;28;20181;-66
2021/04/16 15:13:43;;;;;;;2.38;2.17;;;9.00;99.90;;;;;;5057758;28;20203;-66
2021/04/16 15:16:17;;;;;;;1.80;1.70;;;9.10;99.90;;;;;;5057594;28;20303;-64
2021/04/16 15:18:44;;;;;;;1.85;1.70;;;9.00;99.90;;;;;;5057345;28;20183;-64
2021/04/16 15:21:18;;;;;;;3.00;2.10;;;9.00;99.90;;;;;;5057716;28;20197;-65
2021/04/16 15:23:51;;;;;;;1.88;1.77;;;9.00;99.90;;;;;;5056982;28;20188;-64
2021/04/16 15:26:21;;;;;;;4.30;2.00;;;9.10;99.90;;;;;;5058363;28;20256;-64